createdAt,value
2022-11-10T00:01:41.132Z,26.48
2022-11-10T00:04:31.821Z,28.40
2022-11-10T00:07:21.382Z,26.15
2022-11-10T00:10:11.582Z,21.98
2022-11-10T00:13:03.772Z,21.45
2022-11-10T00:16:24.780Z,23.95
2022-11-10T00:19:13.254Z,24.08
2022-11-10T00:22:04.596Z,23.20
2022-11-10T00:24:53.461Z,21.05
2022-11-10T00:27:43.325Z,19.38
2022-11-10T00:30:32.623Z,24.92
2022-11-10T00:33:22.730Z,18.00
2022-11-10T00:36:12.314Z,18.15
2022-11-10T00:39:03.132Z,22.38
2022-11-10T00:41:51.762Z,17.65
2022-11-10T00:44:41.364Z,20.13
2022-11-10T00:47:30.651Z,20.45
2022-11-10T00:50:20.742Z,18.75
2022-11-10T00:53:09.549Z,18.02
2022-11-10T00:56:00.317Z,15.38
2022-11-10T00:58:49.160Z,18.23
2022-11-10T01:01:38.631Z,21.00
2022-11-10T01:04:27.903Z,21.38
2022-11-10T01:07:17.172Z,20.10
2022-11-10T01:10:06.123Z,20.42
2022-11-10T01:12:57.023Z,22.25
2022-11-10T01:15:45.943Z,18.85
2022-11-10T01:18:35.330Z,22.60
2022-11-10T01:21:25.042Z,19.65
2022-11-10T01:24:14.410Z,19.75
2022-11-10T01:27:03.551Z,19.90
2022-11-10T01:29:54.470Z,22.67
2022-11-10T01:32:43.207Z,20.20
2022-11-10T01:35:32.492Z,22.05
2022-11-10T01:38:21.333Z,19.52
2022-11-10T01:41:13.516Z,21.42
2022-11-10T01:44:20.011Z,18.58
2022-11-10T01:47:11.021Z,23.63
2022-11-10T01:50:00.521Z,17.77
2022-11-10T01:52:52.670Z,16.38
2022-11-10T01:55:44.322Z,18.42
2022-11-10T01:58:40.436Z,16.00
2022-11-10T02:01:29.363Z,18.88
2022-11-10T02:04:22.511Z,17.95
2022-11-10T02:07:12.790Z,18.67
2022-11-10T02:10:05.232Z,20.80
2022-11-10T02:12:54.120Z,19.42
2022-11-10T02:15:44.220Z,18.98
2022-11-10T02:18:32.972Z,18.05
2022-11-10T02:21:23.836Z,18.00
2022-11-10T02:24:12.362Z,17.10
2022-11-10T02:27:01.772Z,18.38
2022-11-10T02:29:50.340Z,19.10
2022-11-10T02:32:39.831Z,17.05
2022-11-10T02:35:28.552Z,18.38
2022-11-10T02:38:19.339Z,16.02
2022-11-10T02:41:08.318Z,14.65
2022-11-10T02:43:58.763Z,15.95
2022-11-10T02:46:47.780Z,16.63
2022-11-10T02:49:37.131Z,14.45
2022-11-10T02:52:25.848Z,18.13
2022-11-10T02:55:16.782Z,18.52
2022-11-10T02:58:05.769Z,18.33
2022-11-10T03:00:55.370Z,17.38
2022-11-10T03:03:44.681Z,16.02
2022-11-10T03:06:33.977Z,17.60
2022-11-10T03:09:23.091Z,16.88
2022-11-10T03:12:14.051Z,18.42
2022-11-10T03:15:02.782Z,18.08
2022-11-10T03:17:52.179Z,16.20
2022-11-10T03:20:41.443Z,15.25
2022-11-10T03:23:30.992Z,15.93
2022-11-10T03:26:19.879Z,15.65
2022-11-10T03:29:10.829Z,15.70
2022-11-10T03:31:59.247Z,18.40
2022-11-10T03:34:48.230Z,16.98
2022-11-10T03:37:37.331Z,20.65
2022-11-10T03:40:26.781Z,20.67
2022-11-10T03:43:15.437Z,22.40
2022-11-10T03:46:06.381Z,16.15
2022-11-10T03:48:55.540Z,19.23
2022-11-10T03:51:44.332Z,18.25
2022-11-10T03:54:33.410Z,20.48
2022-11-10T03:57:22.892Z,14.45
2022-11-10T04:00:13.417Z,18.85
2022-11-10T04:03:04.511Z,16.20
2022-11-10T04:06:10.859Z,19.42
2022-11-10T04:09:02.911Z,16.58
2022-11-10T04:12:08.762Z,17.73
2022-11-10T04:15:14.936Z,19.10
2022-11-10T04:18:18.949Z,16.75
2022-11-10T04:21:08.402Z,16.65
2022-11-10T04:23:57.986Z,22.10
2022-11-10T04:26:49.024Z,17.42
2022-11-10T04:29:38.057Z,16.92
2022-11-10T04:32:27.198Z,20.27
2022-11-10T04:35:17.547Z,17.77
2022-11-10T04:38:06.875Z,14.65
2022-11-10T04:40:56.175Z,15.25
2022-11-10T04:43:47.375Z,16.70
2022-11-10T04:46:37.957Z,16.75
2022-11-10T04:49:27.288Z,18.75
2022-11-10T04:52:17.665Z,19.73
2022-11-10T04:55:07.225Z,20.27
2022-11-10T04:57:56.159Z,17.52
2022-11-10T05:00:45.508Z,17.13
2022-11-10T05:03:34.226Z,17.05
2022-11-10T05:06:24.538Z,16.48
2022-11-10T05:09:14.929Z,18.98
2022-11-10T05:12:03.979Z,16.63
2022-11-10T05:14:53.169Z,16.15
2022-11-10T05:17:42.508Z,19.30
2022-11-10T05:20:31.077Z,15.15
2022-11-10T05:23:37.992Z,18.13
2022-11-10T05:26:28.728Z,17.67
2022-11-10T05:29:18.127Z,16.60
2022-11-10T05:32:07.300Z,15.10
2022-11-10T05:34:57.539Z,17.48
2022-11-10T05:37:49.208Z,17.90
2022-11-10T05:40:42.546Z,17.52
2022-11-10T05:43:38.881Z,15.13
2022-11-10T05:46:33.457Z,17.17
2022-11-10T05:49:33.189Z,16.50
2022-11-10T05:52:50.228Z,16.35
2022-11-10T05:55:56.077Z,12.38
2022-11-10T06:02:07.430Z,13.77
2022-11-10T06:05:04.777Z,15.43
2022-11-10T06:08:00.246Z,15.63
2022-11-10T06:11:00.836Z,16.02
2022-11-10T06:13:52.254Z,15.30
2022-11-10T06:16:41.558Z,16.57
2022-11-10T06:19:30.938Z,14.40
2022-11-10T06:22:21.865Z,14.25
2022-11-10T06:25:12.226Z,14.52
2022-11-10T06:28:01.836Z,15.07
2022-11-10T06:30:52.254Z,13.57
2022-11-10T06:33:43.145Z,14.23
2022-11-10T06:36:32.628Z,14.70
2022-11-10T06:39:21.916Z,17.42
2022-11-10T06:42:10.725Z,14.98
2022-11-10T06:45:00.616Z,14.50
2022-11-10T06:47:51.506Z,18.40
2022-11-10T06:50:40.875Z,14.32
2022-11-10T06:53:30.218Z,18.42
2022-11-10T06:56:20.433Z,18.85
2022-11-10T06:59:09.572Z,16.75
2022-11-10T07:01:58.944Z,20.00
2022-11-10T07:04:51.163Z,18.35
2022-11-10T07:07:40.994Z,16.65
2022-11-10T07:10:30.065Z,18.40
2022-11-10T07:13:19.766Z,17.02
2022-11-10T07:16:10.936Z,19.30
2022-11-10T07:19:00.675Z,17.65
2022-11-10T07:21:50.999Z,16.55
2022-11-10T07:24:40.424Z,19.10
2022-11-10T07:27:29.561Z,16.42
2022-11-10T07:30:19.276Z,18.42
2022-11-10T07:33:11.563Z,12.77
2022-11-10T07:36:03.785Z,11.95
2022-11-10T07:41:42.472Z,12.95
2022-11-10T07:44:31.535Z,15.52
2022-11-10T07:47:21.256Z,13.95
2022-11-10T07:50:11.645Z,12.45
2022-11-10T07:53:08.056Z,10.63
2022-11-10T07:56:00.656Z,13.48
2022-11-10T07:58:57.955Z,11.45
2022-11-10T08:01:47.834Z,11.60
2022-11-10T08:04:37.145Z,12.05
2022-11-10T08:07:26.722Z,13.50
2022-11-10T08:10:16.596Z,11.57
2022-11-10T08:13:11.634Z,11.65
2022-11-10T08:16:01.857Z,10.65
2022-11-10T08:18:50.577Z,10.80
2022-11-10T08:21:39.817Z,17.58
2022-11-10T08:24:30.296Z,11.02
2022-11-10T08:27:20.254Z,9.60
2022-11-10T08:30:12.016Z,7.72
2022-11-10T08:33:03.082Z,11.85
2022-11-10T08:35:54.406Z,11.50
2022-11-10T08:38:43.936Z,8.32
2022-11-10T08:41:33.515Z,8.82
2022-11-10T08:44:22.906Z,9.95
2022-11-10T08:47:14.386Z,10.68
2022-11-10T08:50:03.566Z,9.93
2022-11-10T08:52:52.517Z,12.30
2022-11-10T08:55:42.113Z,10.45
2022-11-10T08:58:31.064Z,7.07
2022-11-10T09:01:20.969Z,7.70
2022-11-10T09:04:11.887Z,15.77
2022-11-10T09:07:01.264Z,8.65
2022-11-10T09:10:05.989Z,7.93
2022-11-10T09:12:56.111Z,8.93
2022-11-10T09:15:46.486Z,8.90
2022-11-10T09:18:36.785Z,8.65
2022-11-10T09:21:26.816Z,8.50
2022-11-10T09:24:16.026Z,6.50
2022-11-10T09:27:05.194Z,6.93
2022-11-10T09:29:55.307Z,5.50
2022-11-10T09:32:47.030Z,9.00
2022-11-10T09:38:27.144Z,7.90
2022-11-10T09:41:17.557Z,7.70
2022-11-10T09:44:13.085Z,9.18
2022-11-10T09:47:06.982Z,7.28
2022-11-10T09:50:01.274Z,5.97
2022-11-10T09:52:53.250Z,5.75
2022-11-10T09:55:50.404Z,6.13
2022-11-10T09:58:42.496Z,6.93
2022-11-10T10:01:40.570Z,7.47
2022-11-10T10:04:53.857Z,4.95
2022-11-10T10:07:51.668Z,8.45
2022-11-10T10:10:46.680Z,7.57
2022-11-10T10:13:54.186Z,7.15
2022-11-10T10:16:49.294Z,7.20
2022-11-10T10:19:50.674Z,6.97
2022-11-10T10:22:56.696Z,4.55
2022-11-10T10:25:49.303Z,5.93
2022-11-10T10:28:41.739Z,4.20
2022-11-10T10:31:36.376Z,5.10
2022-11-10T10:34:29.386Z,5.90
2022-11-10T10:37:40.568Z,4.22
2022-11-10T10:40:30.274Z,7.07
2022-11-10T10:43:21.314Z,6.38
2022-11-10T10:46:12.553Z,5.82
2022-11-10T10:49:31.306Z,3.47
2022-11-10T10:52:25.477Z,5.32
2022-11-10T10:55:15.833Z,3.38
2022-11-10T10:58:07.575Z,7.32
2022-11-10T11:01:07.019Z,7.22
2022-11-10T11:03:56.864Z,7.45
2022-11-10T11:06:59.784Z,3.67
2022-11-10T11:09:49.455Z,5.03
2022-11-10T11:12:37.977Z,5.03
2022-11-10T11:15:29.983Z,5.38
2022-11-10T11:18:22.581Z,6.38
2022-11-10T11:21:25.285Z,3.30
2022-11-10T11:27:19.955Z,4.30
2022-11-10T11:30:13.844Z,5.40
2022-11-10T11:33:37.106Z,5.90
2022-11-10T11:36:40.174Z,3.83
2022-11-10T11:39:42.465Z,5.07
2022-11-10T11:42:44.165Z,4.95
2022-11-10T11:45:47.557Z,7.18
2022-11-10T11:48:50.482Z,3.65
2022-11-10T11:51:53.812Z,4.75
2022-11-10T11:55:01.793Z,5.32
2022-11-10T11:58:15.985Z,4.47
2022-11-10T12:01:18.406Z,3.67
2022-11-10T12:04:44.572Z,3.70
2022-11-10T12:07:49.165Z,4.22
2022-11-10T12:10:49.455Z,6.43
2022-11-10T12:13:43.515Z,5.95
2022-11-10T12:16:35.613Z,6.00
2022-11-10T12:19:34.104Z,7.28
2022-11-10T12:22:32.965Z,12.93
2022-11-10T12:25:30.675Z,8.32
2022-11-10T12:28:28.234Z,8.23
2022-11-10T12:31:41.723Z,7.72
2022-11-10T12:34:38.572Z,18.85
2022-11-10T12:37:35.114Z,12.70
2022-11-10T12:40:33.044Z,13.25
2022-11-10T12:43:30.514Z,9.23
2022-11-10T12:46:22.773Z,16.85
2022-11-10T12:49:20.055Z,9.55
2022-11-10T12:52:17.599Z,11.98
2022-11-10T12:55:07.723Z,5.10
2022-11-10T12:57:58.794Z,13.05
2022-11-10T13:00:57.781Z,5.93
2022-11-10T13:03:57.233Z,11.52
2022-11-10T13:06:51.009Z,6.07
2022-11-10T13:09:43.201Z,12.05
2022-11-10T13:12:32.104Z,9.45
2022-11-10T13:15:51.775Z,12.45
2022-11-10T13:19:02.247Z,9.75
2022-11-10T13:22:07.434Z,7.85
2022-11-10T13:25:35.120Z,10.25
2022-11-10T13:28:59.909Z,9.40
2022-11-10T13:31:58.641Z,12.10
2022-11-10T13:34:47.993Z,7.40
2022-11-10T13:37:51.425Z,7.93
2022-11-10T13:40:44.782Z,14.88
2022-11-10T13:43:33.631Z,12.93
2022-11-10T13:46:23.861Z,7.75
2022-11-10T13:49:39.380Z,6.60
2022-11-10T13:52:44.338Z,10.80
2022-11-10T13:55:49.471Z,8.63
2022-11-10T13:58:40.900Z,7.25
2022-11-10T14:01:31.270Z,9.82
2022-11-10T14:04:42.175Z,10.27
2022-11-10T14:07:36.875Z,9.68
2022-11-10T14:10:36.900Z,8.80
2022-11-10T14:13:33.798Z,11.45
2022-11-10T14:16:26.050Z,8.60
2022-11-10T14:19:40.291Z,7.95
2022-11-10T14:22:36.241Z,9.40
2022-11-10T14:25:30.887Z,25.17
2022-11-10T14:28:28.350Z,9.32
2022-11-10T14:31:22.089Z,10.02
2022-11-10T14:34:17.631Z,9.32
2022-11-10T14:37:07.269Z,9.52
2022-11-10T14:39:59.601Z,9.68
2022-11-10T14:42:49.589Z,7.70
2022-11-10T14:45:41.662Z,12.45
2022-11-10T14:48:32.750Z,14.45
2022-11-10T14:51:22.312Z,14.65
2022-11-10T14:54:18.941Z,15.20
2022-11-10T14:57:16.894Z,10.57
2022-11-10T15:00:10.201Z,9.38
2022-11-10T15:03:00.378Z,10.43
2022-11-10T15:05:50.510Z,9.38
2022-11-10T15:08:40.590Z,14.77
2022-11-10T15:11:41.022Z,10.18
2022-11-10T15:14:42.999Z,10.65
2022-11-10T15:20:42.009Z,10.50
2022-11-10T15:23:36.110Z,11.77
2022-11-10T15:26:27.080Z,9.10
2022-11-10T15:29:24.611Z,10.43
2022-11-10T15:32:21.495Z,7.40
2022-11-10T15:35:13.079Z,12.10
2022-11-10T15:38:04.089Z,8.77
2022-11-10T15:40:54.463Z,18.25
2022-11-10T15:43:44.071Z,11.77
2022-11-10T15:46:33.174Z,10.48
2022-11-10T15:49:27.889Z,15.77
2022-11-10T15:52:20.949Z,8.10
2022-11-10T15:55:21.950Z,10.98
2022-11-10T15:58:14.734Z,16.55
2022-11-10T16:01:05.225Z,15.07
2022-11-10T16:03:54.468Z,14.68
2022-11-10T16:06:45.980Z,10.73
2022-11-10T16:09:34.842Z,11.70
2022-11-10T16:12:27.199Z,10.18
2022-11-10T16:15:20.420Z,9.15
2022-11-10T16:18:14.778Z,15.75
2022-11-10T16:21:28.591Z,10.35
2022-11-10T16:24:20.444Z,7.97
2022-11-10T16:27:12.871Z,10.80
2022-11-10T16:30:02.739Z,10.90
2022-11-10T16:32:51.500Z,12.15
2022-11-10T16:35:41.072Z,10.70
2022-11-10T16:38:32.383Z,15.32
2022-11-10T16:41:24.544Z,13.00
2022-11-10T16:44:16.913Z,13.45
2022-11-10T16:47:05.890Z,11.75
2022-11-10T16:49:55.960Z,8.63
2022-11-10T16:52:45.660Z,15.68
2022-11-10T16:55:37.026Z,13.77
2022-11-10T16:58:29.112Z,11.17
2022-11-10T17:04:15.706Z,11.73
2022-11-10T17:07:06.404Z,7.93
2022-11-10T17:10:01.265Z,16.92
2022-11-10T17:12:50.556Z,13.02
2022-11-10T17:15:42.492Z,9.77
2022-11-10T17:18:32.142Z,14.17
2022-11-10T17:21:26.217Z,16.33
2022-11-10T17:24:19.230Z,15.82
2022-11-10T17:27:08.734Z,12.93
2022-11-10T17:29:58.459Z,15.18
2022-11-10T17:33:04.735Z,15.88
2022-11-10T17:35:55.991Z,12.38
2022-11-10T17:38:46.310Z,14.50
2022-11-10T17:41:37.039Z,15.73
2022-11-10T17:44:27.752Z,15.37
2022-11-10T17:47:17.710Z,13.93
2022-11-10T17:50:10.040Z,14.32
2022-11-10T17:52:59.721Z,13.18
2022-11-10T17:55:50.940Z,14.48
2022-11-10T17:58:40.579Z,23.73
2022-11-10T18:01:30.242Z,23.90
2022-11-10T18:04:19.561Z,31.08
2022-11-10T18:07:11.559Z,31.27
2022-11-10T18:10:00.820Z,23.55
2022-11-10T18:12:52.571Z,31.38
2022-11-10T18:15:45.304Z,20.98
2022-11-10T18:18:35.282Z,23.45
2022-11-10T18:21:24.380Z,28.45
2022-11-10T18:24:15.414Z,22.02
2022-11-10T18:27:04.460Z,22.73
2022-11-10T18:29:53.920Z,20.10
2022-11-10T18:32:42.669Z,21.45
2022-11-10T18:35:32.790Z,24.10
2022-11-10T18:38:22.040Z,26.40
2022-11-10T18:41:30.090Z,26.65
2022-11-10T18:44:19.191Z,22.67
2022-11-10T18:47:09.500Z,15.77
2022-11-10T18:49:58.244Z,18.67
2022-11-10T18:52:48.063Z,31.73
2022-11-10T18:55:38.647Z,17.63
2022-11-10T18:58:31.899Z,16.70
2022-11-10T19:01:22.907Z,16.88
2022-11-10T19:04:12.872Z,19.65
2022-11-10T19:07:01.740Z,17.58
2022-11-10T19:09:51.332Z,15.13
2022-11-10T19:12:40.269Z,14.77
2022-11-10T19:15:31.331Z,18.52
2022-11-10T19:18:19.981Z,15.70
2022-11-10T19:21:10.369Z,14.70
2022-11-10T19:23:59.742Z,12.73
2022-11-10T19:26:51.221Z,13.20
2022-11-10T19:29:40.240Z,15.63
2022-11-10T19:32:32.000Z,13.90
2022-11-10T19:35:20.820Z,13.57
2022-11-10T19:38:10.223Z,15.00
2022-11-10T19:40:59.194Z,17.50
2022-11-10T19:43:48.482Z,17.65
2022-11-10T19:46:39.718Z,22.35
2022-11-10T19:49:31.166Z,20.07
2022-11-10T19:52:19.950Z,16.23
2022-11-10T19:55:09.961Z,15.07
2022-11-10T19:57:59.100Z,16.55
2022-11-10T20:00:49.549Z,17.85
2022-11-10T20:03:39.821Z,16.05
2022-11-10T20:06:30.870Z,14.97
2022-11-10T20:09:19.439Z,14.45
2022-11-10T20:12:08.772Z,20.38
2022-11-10T20:14:57.850Z,18.95
2022-11-10T20:17:46.840Z,15.00
2022-11-10T20:20:36.059Z,15.85
2022-11-10T20:23:27.041Z,16.92
2022-11-10T20:26:17.770Z,14.55
2022-11-10T20:29:07.170Z,16.42
2022-11-10T20:31:56.162Z,15.52
2022-11-10T20:34:45.350Z,19.95
2022-11-10T20:37:35.660Z,16.70
2022-11-10T20:40:43.404Z,16.40
2022-11-10T20:43:36.382Z,20.40
2022-11-10T20:46:53.438Z,16.80
2022-11-10T20:49:35.452Z,14.68
2022-11-10T20:52:24.713Z,16.10
2022-11-10T20:55:18.011Z,15.38
2022-11-10T20:58:09.954Z,15.18
2022-11-10T21:01:03.465Z,15.68
2022-11-10T21:03:53.859Z,11.75
2022-11-10T21:06:43.471Z,16.92
2022-11-10T21:09:33.701Z,20.45
2022-11-10T21:12:41.819Z,20.73
2022-11-10T21:15:34.951Z,13.85
2022-11-10T21:18:31.637Z,14.13
2022-11-10T21:21:26.681Z,12.38
2022-11-10T21:24:15.558Z,14.65
2022-11-10T21:27:08.243Z,15.68
2022-11-10T21:29:59.020Z,14.73
2022-11-10T21:32:52.758Z,16.98
2022-11-10T21:35:43.121Z,18.92
2022-11-10T21:38:33.122Z,16.45
2022-11-10T21:41:22.178Z,14.95
2022-11-10T21:44:11.529Z,15.57
2022-11-10T21:47:00.227Z,16.92
2022-11-10T21:49:51.392Z,18.65
2022-11-10T21:52:40.868Z,31.63
2022-11-10T21:55:30.280Z,19.33
2022-11-10T21:58:19.428Z,18.83
2022-11-10T22:01:13.005Z,18.63
2022-11-10T22:04:01.997Z,21.10
2022-11-10T22:07:10.426Z,21.42
2022-11-10T22:10:16.916Z,13.48
2022-11-10T22:13:24.143Z,13.30
2022-11-10T22:16:41.467Z,23.40
2022-11-10T22:19:31.128Z,16.80
2022-11-10T22:22:21.764Z,15.38
2022-11-10T22:28:00.365Z,15.20
2022-11-10T22:30:50.295Z,17.60
2022-11-10T22:33:40.705Z,15.40
2022-11-10T22:36:30.107Z,19.77
2022-11-10T22:39:21.086Z,15.73
2022-11-10T22:42:31.699Z,12.27
2022-11-10T22:45:20.494Z,17.10
2022-11-10T22:48:27.910Z,12.73
2022-11-10T22:51:17.785Z,16.27
2022-11-10T22:54:08.299Z,16.45
2022-11-10T22:56:59.593Z,16.13
2022-11-10T22:59:48.803Z,16.02
2022-11-10T23:02:38.784Z,12.77
2022-11-10T23:05:28.453Z,14.57
2022-11-10T23:08:17.765Z,14.75
2022-11-10T23:11:09.088Z,17.85
2022-11-10T23:13:59.530Z,14.25
2022-11-10T23:16:51.013Z,16.42
2022-11-10T23:19:40.253Z,17.95
2022-11-10T23:22:29.982Z,20.00
2022-11-10T23:25:19.206Z,15.18
2022-11-10T23:28:08.972Z,15.20
2022-11-10T23:31:05.625Z,17.73
2022-11-10T23:33:56.946Z,13.35
2022-11-10T23:36:47.254Z,12.90
2022-11-10T23:39:37.050Z,14.05
2022-11-10T23:42:27.739Z,14.02
2022-11-10T23:45:18.603Z,13.65
2022-11-10T23:48:09.782Z,18.00
2022-11-10T23:50:59.324Z,13.57
2022-11-10T23:53:48.054Z,13.45
2022-11-10T23:56:37.103Z,21.52
2022-11-10T23:59:26.638Z,19.02
